Latest Weather Observations for kunanyi / Mount Wellington

IDT60901

Issued at 8:01 pm EDT Monday 27 January 2020 (issued every 10 minutes, with the page automatically refreshed every 10 minutes)

About weather observations | Map of Hobart area stations | Latest observations for Hobart area | Other Formats
Station Details ID: 094087 Name: KUNANYI (MOUNT WELLINGTON PINNACLE) Lat: -42.90 Lon: 147.24 Height: 1260.47 m
Data from the previous 72 hours. | See also: Recent months at kunanyi / Mount Wellington
Date/Time
EDT
Temp
°C
App
Temp
°C
Dew
Point
°C
Rel
Hum
%
Delta-T
°C
Wind Press
QNH
hPa
Press
MSL
hPa
Rain since
9am
mm
Dir  Spd
km/h
Gust
km/h
Spd
kts
Gust
kts
27/08:00pm 6.8 -1.3 3.1 77 1.7 WNW 35 44 19 24 - - 0.0
27/07:30pm 7.4 -0.3 2.5 71 2.2 W 32 41 17 22 - - 0.0
27/07:02pm 7.7 -0.2 2.4 69 2.4 W 33 56 18 30 - - 0.0
27/07:00pm 7.8 0.2 2.9 71 2.2 W 32 44 17 24 - - 0.0
27/06:30pm 8.7 1.4 2.5 65 2.8 W 30 44 16 24 - - 0.0
27/06:00pm 8.9 2.7 4.1 72 2.3 W 26 37 14 20 - - 0.0
27/05:30pm 8.4 0.9 3.7 72 2.2 W 32 43 17 23 - - 0.0
27/05:00pm 10.0 3.4 4.2 67 2.8 W 28 41 15 22 - - 0.0
27/04:35pm 10.0 3.2 3.3 63 3.1 WSW 28 50 15 27 - - 0.0
27/04:30pm 10.5 3.8 3.8 63 3.2 WSW 28 41 15 22 - - 0.0
27/04:00pm 9.2 2.5 3.4 67 2.7 W 28 41 15 22 - - 0.0
27/03:30pm 9.1 3.3 2.2 62 3.1 WNW 22 35 12 19 - - 0.0
27/03:00pm 9.6 2.5 3.6 66 2.8 WSW 30 41 16 22 - - 0.0
27/02:30pm 9.9 1.8 3.4 64 3.1 WSW 35 50 19 27 - - 0.0
27/02:00pm 9.9 3.3 4.1 67 2.8 WSW 28 35 15 19 - - 0.0
27/01:30pm 10.1 2.4 3.6 64 3.1 WSW 33 44 18 24 - - 0.0
27/01:00pm 8.4 0.8 4.0 74 2.1 WSW 33 43 18 23 - - 0.0
27/12:37pm 7.7 0.6 3.6 75 1.9 WSW 30 48 16 26 - - 0.0
27/12:30pm 7.9 0.2 3.6 74 2.0 WSW 33 48 18 26 - - 0.0
27/12:00pm 6.7 -0.9 2.8 76 1.8 WSW 32 44 17 24 - - 0.0
27/11:32am 6.3 -2.1 1.4 71 2.1 WSW 35 56 19 30 - - 0.0
27/11:30am 6.2 -1.8 1.5 72 2.0 WSW 33 50 18 27 - - 0.0
27/11:00am 6.0 -2.5 1.2 71 2.1 WSW 35 61 19 33 - - 0.0
27/10:30am 6.1 -3.7 0.0 65 2.6 W 41 54 22 29 - - 0.0
27/10:00am 5.5 -4.8 0.5 70 2.1 W 44 57 24 31 - - 0.0
27/09:39am 5.8 -4.8 0.6 69 2.2 W 46 69 25 37 - - 0.0
27/09:30am 5.4 -4.6 1.1 74 1.8 W 43 59 23 32 - - 0.0
27/09:28am 5.0 -4.0 2.2 82 1.2 W 39 59 21 32 - - 0.0
27/09:00am 4.8 -4.5 2.8 87 0.9 W 41 59 22 32 - - 0.0
27/08:30am 4.7 -4.1 3.7 93 0.5 W 39 52 21 28 - - 0.0
27/08:00am 4.6 -4.9 3.7 94 0.4 W 43 54 23 29 - - 0.0
27/07:30am 4.8 -5.8 3.3 90 0.7 W 48 63 26 34 - - 0.0
27/07:00am 4.7 -7.0 3.4 91 0.6 W 54 67 29 36 - - 0.0
27/06:30am 4.0 -6.5 3.4 96 0.3 W 48 59 26 32 - - 0.0
27/06:00am 4.0 -7.0 3.0 93 0.4 W 50 61 27 33 - - 0.0
27/05:30am 3.9 -5.4 3.0 94 0.4 W 41 52 22 28 - - 0.0
27/05:00am 4.0 -3.3 2.2 88 0.8 W 30 37 16 20 - - 0.0
27/04:30am 4.6 -4.1 -0.2 71 2.0 W 35 46 19 25 - - 0.0
27/04:09am 4.0 -5.8 2.5 90 0.7 W 43 61 23 33 - - 0.0
27/04:00am 4.0 -6.7 2.7 91 0.6 W 48 63 26 34 - - 0.0
27/03:30am 4.0 -7.1 2.4 89 0.7 W 50 65 27 35 - - 0.0
27/03:00am 4.0 -7.1 2.2 88 0.8 W 50 63 27 34 - - 0.0
27/02:30am 4.3 -5.7 1.0 79 1.4 W 43 57 23 31 - - 0.0
27/02:00am 3.8 -6.5 2.5 91 0.6 W 46 56 25 30 - - 0.0
27/01:30am 3.7 -6.6 2.8 94 0.4 WNW 46 57 25 31 - - 0.0
27/01:00am 3.8 -6.4 3.4 97 0.2 NW 46 57 25 31 - - 0.0
27/12:30am 3.9 -5.0 3.2 95 0.3 NW 39 50 21 27 - - 0.0
27/12:00am 4.1 -4.4 3.2 94 0.4 NW 37 44 20 24 - - 0.0
 
Date/Time
EDT
Temp
°C
App
Temp
°C
Dew
Point
°C
Rel
Hum
%
Delta-T
°C
Wind Press
QNH
hPa
Press
MSL
hPa
Rain since
9am
mm
Dir  Spd
km/h
Gust
km/h
Spd
kts
Gust
kts
26/11:30pm 4.3 -5.1 2.5 88 0.8 WNW 41 54 22 29 - - 0.0
26/11:00pm 4.4 -5.4 2.4 87 0.9 WNW 43 56 23 30 - - 0.0
26/10:30pm 4.5 -2.8 2.2 85 1.0 WNW 30 39 16 21 - - 0.0
26/10:12pm 4.5 -3.3 1.7 82 1.2 W 32 52 17 28 - - 0.0
26/10:00pm 4.5 -4.7 1.5 81 1.3 W 39 48 21 26 - - 0.0
26/09:30pm 4.6 -5.5 1.5 80 1.3 W 44 67 24 36 - - 0.0
26/09:19pm 4.6 -4.2 1.3 79 1.4 W 37 59 20 32 - - 0.0
26/09:00pm 4.8 -3.6 1.3 78 1.5 W 35 50 19 27 - - 0.0
26/08:30pm 5.0 -3.4 1.7 79 1.4 W 35 50 19 27 - - 0.0
26/08:13pm 5.5 -3.8 0.9 72 2.0 W 39 67 21 36 - - 0.0
26/08:00pm 6.0 -1.8 1.5 73 2.0 W 32 46 17 25 - - 0.0
26/07:30pm 6.3 0.1 2.2 75 1.8 WSW 24 35 13 19 - - 0.0
26/07:00pm 7.6 0.8 3.1 73 2.1 WSW 28 43 15 23 - - 0.0
26/06:30pm 7.3 -0.9 2.6 72 2.1 W 35 50 19 27 - - 0.0
26/06:11pm 7.4 -0.4 2.7 72 2.1 WSW 33 54 18 29 - - 0.0
26/06:00pm 7.6 -0.4 3.8 77 1.8 WSW 35 50 19 27 - - 0.0
26/05:30pm 7.9 -2.6 3.6 74 2.0 WSW 48 63 26 34 - - 0.0
26/05:10pm 7.5 -2.6 3.6 76 1.8 WSW 46 67 25 36 - - 0.0
26/05:00pm 7.9 -2.6 3.8 75 1.9 WSW 48 67 26 36 - - 0.0
26/04:35pm 6.9 -3.0 4.9 87 0.9 W 46 67 25 36 - - 0.0
26/04:30pm 6.9 -3.0 4.9 87 0.9 W 46 59 25 32 - - 0.0
26/04:19pm 7.1 -2.2 5.7 91 0.7 WSW 44 63 24 34 - - 0.0
26/04:00pm 7.6 -0.5 5.1 84 1.2 W 37 54 20 29 - - 0.0
26/03:44pm 8.3 -1.2 4.7 78 1.7 W 44 63 24 34 - - 0.0
26/03:30pm 7.9 -2.5 4.1 77 1.8 WSW 48 67 26 36 - - 0.0
26/03:00pm 10.7 -0.4 4.4 65 3.0 W 52 74 28 40 - - 0.0
26/02:30pm 9.3 -1.5 4.3 71 2.4 W 50 76 27 41 - - 0.0
26/02:19pm 8.4 -2.7 6.2 86 1.1 W 54 76 29 41 - - 0.0
26/02:17pm 8.2 -3.0 5.8 85 1.2 W 54 76 29 41 - - 0.0
26/02:00pm 8.0 -0.2 6.6 91 0.7 W 39 61 21 33 - - 0.0
26/01:30pm 10.2 0.0 5.0 70 2.5 WNW 48 70 26 38 - - 0.0
26/01:03pm 9.9 -2.0 4.5 69 2.6 WNW 56 78 30 42 - - 0.0
26/01:00pm 9.6 -1.8 4.8 72 2.3 WNW 54 70 29 38 - - 0.0
26/12:42pm 9.9 -0.6 5.7 75 2.1 WNW 50 69 27 37 - - 0.0
26/12:30pm 10.1 1.1 6.6 79 1.8 WNW 43 59 23 32 - - 0.0
26/12:00pm 9.3 2.3 6.7 84 1.3 W 33 54 18 29 - - 0.0
26/11:30am 11.1 4.8 7.6 79 1.8 WNW 30 48 16 26 - - 0.0
26/11:00am 10.1 2.4 7.3 83 1.4 NW 37 59 20 32 - - 0.0
26/10:51am 9.7 2.1 7.5 86 1.1 NW 37 56 20 30 - - 0.0
26/10:30am 9.4 4.3 9.3 99 0.1 WNW 26 46 14 25 - - 0.0
26/10:00am 9.1 5.1 9.1 100 0.0 WNW 20 35 11 19 - - 0.0
26/09:30am 9.1 3.6 9.1 100 0.0 WNW 28 43 15 23 - - 0.0
26/09:00am 8.4 2.7 8.4 100 0.0 W 28 46 15 25 - - 0.8
26/08:47am 8.5 2.8 8.5 100 0.0 WNW 28 48 15 26 - - 0.8
26/08:30am 8.4 2.7 8.4 100 0.0 WNW 28 41 15 22 - - 0.8
26/08:00am 7.9 1.1 7.9 100 0.0 W 33 48 18 26 - - 0.8
26/07:43am 8.1 2.0 8.1 100 0.0 WNW 30 50 16 27 - - 0.8
26/07:30am 8.2 2.8 8.2 100 0.0 NW 26 39 14 21 - - 0.8
26/07:00am 8.1 1.6 8.1 100 0.0 WNW 32 52 17 28 - - 0.8
26/06:33am 8.3 2.6 8.3 100 0.0 WNW 28 48 15 26 - - 0.8
26/06:30am 8.4 3.5 8.4 100 0.0 WNW 24 41 13 22 - - 0.8
26/06:00am 8.6 4.1 8.6 100 0.0 WNW 22 33 12 18 - - 0.8
26/05:30am 8.9 3.3 8.9 100 0.0 W 28 39 15 21 - - 0.8
26/05:00am 9.0 3.1 9.0 100 0.0 WNW 30 48 16 26 - - 0.8
26/04:30am 9.3 2.5 9.3 100 0.0 WNW 35 56 19 30 - - 0.8
26/04:21am 9.4 3.0 9.4 100 0.0 WNW 33 54 18 29 - - 0.8
26/04:00am 9.6 2.9 9.6 100 0.0 WNW 35 44 19 24 - - 0.8
26/03:30am 9.7 2.6 9.7 100 0.0 NW 37 52 20 28 - - 0.6
26/03:00am 9.7 2.6 9.7 100 0.0 NW 37 50 20 27 - - 0.6
26/02:30am 9.9 2.9 9.9 100 0.0 NW 37 52 20 28 - - 0.4
26/02:00am 9.9 2.5 9.9 100 0.0 NW 39 54 21 29 - - 0.4
26/01:35am 9.9 2.9 9.9 100 0.0 NW 37 56 20 30 - - 0.4
26/01:30am 9.9 2.5 9.9 100 0.0 NW 39 50 21 27 - - 0.4
26/01:06am 10.0 3.0 10.0 100 0.0 NW 37 57 20 31 - - 0.2
26/01:00am 10.0 1.9 10.0 100 0.0 NW 43 57 23 31 - - 0.2
26/12:30am 10.0 3.8 10.0 100 0.0 NW 33 46 18 25 - - 0.2
26/12:13am 10.1 3.9 10.1 100 0.0 NW 33 54 18 29 - - 0.2
26/12:00am 10.0 3.0 10.0 100 0.0 NW 37 54 20 29 - - 0.0
 
Date/Time
EDT
Temp
°C
App
Temp
°C
Dew
Point
°C
Rel
Hum
%
Delta-T
°C
Wind Press
QNH
hPa
Press
MSL
hPa
Rain since
9am
mm
Dir  Spd
km/h
Gust
km/h
Spd
kts
Gust
kts
25/11:52pm 10.0 3.4 10.0 100 0.0 NW 35 54 19 29 - - 0.0
25/11:30pm 10.0 2.6 10.0 100 0.0 NW 39 56 21 30 - - 0.0
25/11:00pm 10.0 3.4 10.0 100 0.0 NW 35 48 19 26 - - 0.0
25/10:30pm 10.0 4.4 10.0 100 0.0 NW 30 41 16 22 - - 0.0
25/10:00pm 10.0 3.8 10.0 100 0.0 NW 33 48 18 26 - - 0.0
25/09:30pm 10.0 2.6 10.0 100 0.0 NW 39 50 21 27 - - 0.0
25/09:00pm 10.1 3.5 10.1 100 0.0 WNW 35 50 19 27 - - 0.0
25/08:30pm 10.2 4.2 10.2 100 0.0 WNW 32 39 17 21 - - 0.0
25/08:00pm 10.1 4.5 10.1 100 0.0 NW 30 39 16 21 - - 0.0
25/07:30pm 10.3 5.0 10.0 98 0.2 WNW 28 41 15 22 - - 0.0
25/07:00pm 10.7 5.8 9.9 95 0.4 WNW 26 35 14 19 - - 0.0
25/06:30pm 11.1 7.3 9.9 92 0.7 NW 20 30 11 16 - - 0.0
25/06:00pm 11.3 7.1 9.9 91 0.8 WNW 22 30 12 16 - - 0.0
25/05:30pm 11.0 7.1 9.6 91 0.8 WNW 20 32 11 17 - - 0.0
25/05:00pm 11.2 6.1 9.1 87 1.1 WNW 26 37 14 20 - - 0.0
25/04:30pm 11.5 7.6 9.4 87 1.1 WNW 20 28 11 15 - - 0.0
25/04:07pm 11.9 5.9 8.7 81 1.7 WNW 30 50 16 27 - - 0.0
25/04:00pm 12.0 5.7 9.0 82 1.6 WNW 32 48 17 26 - - 0.0
25/03:30pm 11.4 5.9 9.0 85 1.3 WNW 28 43 15 23 - - 0.0
25/03:00pm 12.0 5.1 8.7 80 1.8 WNW 35 43 19 23 - - 0.0
25/02:30pm 11.3 4.7 8.7 84 1.4 WNW 33 48 18 26 - - 0.0
25/02:01pm 10.9 4.2 8.3 84 1.4 WNW 33 52 18 28 - - 0.0
25/02:00pm 10.8 4.2 8.4 85 1.3 WNW 33 48 18 26 - - 0.0
25/01:30pm 10.4 3.9 8.0 85 1.2 NW 32 50 17 27 - - 0.0
25/01:00pm 10.0 2.4 7.6 85 1.2 WNW 37 52 20 28 - - 0.0
25/12:30pm 10.7 3.0 7.2 79 1.8 NW 37 56 20 30 - - 0.0
25/12:10pm 10.9 4.2 7.2 78 1.9 NW 32 52 17 28 - - 0.0
25/12:00pm 11.2 4.3 7.3 77 2.0 NW 33 43 18 23 - - 0.0
25/11:30am 10.4 3.0 6.9 79 1.8 WNW 35 44 19 24 - - 0.0
25/11:00am 9.1 1.6 6.2 82 1.4 W 35 44 19 24 - - 0.0
25/10:30am 7.9 -0.5 5.4 84 1.2 W 39 57 21 31 - - 0.0
25/10:14am 8.8 -0.3 6.1 83 1.3 W 43 61 23 33 - - 0.0
25/10:00am 7.7 -2.9 5.3 85 1.2 W 50 63 27 34 - - 0.0
25/09:30am 8.1 -2.4 5.4 83 1.3 W 50 63 27 34 - - 0.0
25/09:00am 7.2 -4.1 5.5 89 0.8 W 54 70 29 38 - - 0.0
25/08:30am 5.5 -4.8 4.5 93 0.5 W 48 59 26 32 - - 0.0
25/08:00am 5.4 -4.6 4.4 93 0.5 W 46 57 25 31 - - 0.0
25/07:30am 5.5 -4.6 3.7 88 0.8 WNW 46 59 25 32 - - 0.0
25/07:00am 5.6 -4.9 3.8 88 0.8 W 48 57 26 31 - - 0.0
25/06:30am 5.1 -6.1 3.9 92 0.5 WNW 52 65 28 35 - - 0.0
25/06:00am 5.1 -5.3 4.2 94 0.4 WNW 48 59 26 32 - - 0.0
25/05:30am 4.9 -6.6 4.6 98 0.1 WNW 54 63 29 34 - - 0.0
25/05:00am 5.2 -5.4 5.2 100 0.0 W 50 61 27 33 - - 0.0
25/04:30am 5.0 -5.3 4.7 98 0.1 WNW 48 57 26 31 - - 0.0
25/04:00am 5.2 -4.2 4.5 95 0.3 W 43 57 23 31 - - 0.0
25/03:30am 5.1 -3.9 4.5 96 0.3 WNW 41 50 22 27 - - 0.0
25/03:00am 5.2 -3.9 4.0 92 0.5 W 41 57 22 31 - - 0.0
25/02:30am 5.5 -3.5 4.3 92 0.6 WNW 41 57 22 31 - - 0.0
25/02:27am 5.5 -3.1 4.5 93 0.5 WNW 39 57 21 31 - - 0.0
25/02:00am 5.4 -1.8 4.8 96 0.3 WNW 32 44 17 24 - - 0.0
25/01:30am 5.5 -1.7 4.9 96 0.3 WNW 32 43 17 23 - - 0.0
25/01:00am 5.8 -1.9 5.2 96 0.3 WNW 35 44 19 24 - - 0.0
25/12:30am 6.0 -1.3 5.4 96 0.3 WNW 33 43 18 23 - - 0.0
25/12:00am 6.2 -1.5 5.5 95 0.3 WNW 35 46 19 25 - - 0.0
 
Date/Time
EDT
Temp
°C
App
Temp
°C
Dew
Point
°C
Rel
Hum
%
Delta-T
°C
Wind Press
QNH
hPa
Press
MSL
hPa
Rain since
9am
mm
Dir  Spd
km/h
Gust
km/h
Spd
kts
Gust
kts
24/11:30pm 6.6 -0.4 6.2 97 0.2 NW 32 43 17 23 - - 0.0
24/11:00pm 6.9 1.6 6.6 98 0.1 WNW 24 33 13 18 - - 0.0
24/10:30pm 7.0 2.0 6.4 96 0.3 WNW 22 32 12 17 - - 0.0
24/10:00pm 6.8 1.0 6.1 95 0.3 WNW 26 33 14 18 - - 0.0
24/09:30pm 7.0 -1.8 5.5 90 0.7 WNW 41 54 22 29 - - 0.0
24/09:05pm 7.2 -1.2 5.8 91 0.7 WNW 39 57 21 31 - - 0.0
24/09:00pm 7.2 -1.0 6.6 96 0.3 WNW 39 52 21 28 - - 0.0
24/08:30pm 7.2 -0.7 6.1 93 0.5 NW 37 50 20 27 - - 0.0

Latest Capital City Observations: Canberra | Sydney | Melbourne | Brisbane | Adelaide | Perth | Hobart | Darwin

Other formats

Comma delimited format used in spreadsheet applications
http://www.bom.gov.au/fwo/IDT60901/IDT60901.95979.axf

JavaScript Object Notation format (JSON) in row-major order
http://www.bom.gov.au/fwo/IDT60901/IDT60901.95979.json

Data quality

Most of these data are generated automatically and are frequently updated. Quality checks on data are not normally performed. It is possible for incorrect values to appear. Refer to information at About Latest Weather Observations and please check the disclaimer before using these data.